sensor_id;sensor_type;location;lat;lon;timestamp;temperature;humidity
30534;DHT22;17318;52.390;9.754;2022-11-04T00:01:57;13.70;99.90
30534;DHT22;17318;52.390;9.754;2022-11-04T00:04:25;13.70;99.90
30534;DHT22;17318;52.390;9.754;2022-11-04T00:06:51;13.70;99.90
30534;DHT22;17318;52.390;9.754;2022-11-04T00:09:22;13.70;99.90
30534;DHT22;17318;52.390;9.754;2022-11-04T00:11:49;13.70;99.90
30534;DHT22;17318;52.390;9.754;2022-11-04T00:14:33;13.80;99.90
30534;DHT22;17318;52.390;9.754;2022-11-04T00:17:00;13.80;99.90
30534;DHT22;17318;52.390;9.754;2022-11-04T00:19:48;13.80;99.90
30534;DHT22;17318;52.390;9.754;2022-11-04T00:22:33;13.80;99.90
30534;DHT22;17318;52.390;9.754;2022-11-04T00:25:18;13.80;99.90
30534;DHT22;17318;52.390;9.754;2022-11-04T00:28:09;13.80;99.90
30534;DHT22;17318;52.390;9.754;2022-11-04T00:30:58;13.90;99.90
30534;DHT22;17318;52.390;9.754;2022-11-04T00:33:45;13.80;99.90
30534;DHT22;17318;52.390;9.754;2022-11-04T00:36:11;13.90;99.90
30534;DHT22;17318;52.390;9.754;2022-11-04T00:38:37;13.90;99.90
30534;DHT22;17318;52.390;9.754;2022-11-04T00:41:03;13.90;99.90
30534;DHT22;17318;52.390;9.754;2022-11-04T00:43:48;13.90;99.90
30534;DHT22;17318;52.390;9.754;2022-11-04T00:46:14;13.90;99.90
30534;DHT22;17318;52.390;9.754;2022-11-04T00:48:39;14.00;99.90
30534;DHT22;17318;52.390;9.754;2022-11-04T00:51:05;13.90;99.90
30534;DHT22;17318;52.390;9.754;2022-11-04T00:53:31;14.00;99.90
30534;DHT22;17318;52.390;9.754;2022-11-04T00:55:58;14.00;99.90
30534;DHT22;17318;52.390;9.754;2022-11-04T00:58:24;14.00;99.90
30534;DHT22;17318;52.390;9.754;2022-11-04T01:00:50;14.00;99.90
30534;DHT22;17318;52.390;9.754;2022-11-04T01:03:15;14.00;99.90
30534;DHT22;17318;52.390;9.754;2022-11-04T01:05:41;14.00;99.90
30534;DHT22;17318;52.390;9.754;2022-11-04T01:08:07;14.00;99.90
30534;DHT22;17318;52.390;9.754;2022-11-04T01:10:34;14.00;99.90
30534;DHT22;17318;52.390;9.754;2022-11-04T01:13:00;14.00;99.90
30534;DHT22;17318;52.390;9.754;2022-11-04T01:15:26;14.10;99.90
30534;DHT22;17318;52.390;9.754;2022-11-04T01:17:52;14.00;99.90
30534;DHT22;17318;52.390;9.754;2022-11-04T01:20:17;14.10;99.90
30534;DHT22;17318;52.390;9.754;2022-11-04T01:22:43;14.00;99.90
30534;DHT22;17318;52.390;9.754;2022-11-04T01:25:09;14.00;99.90
30534;DHT22;17318;52.390;9.754;2022-11-04T01:27:35;14.00;99.90
30534;DHT22;17318;52.390;9.754;2022-11-04T01:30:00;14.00;99.90
30534;DHT22;17318;52.390;9.754;2022-11-04T01:32:27;14.00;99.90
30534;DHT22;17318;52.390;9.754;2022-11-04T01:34:52;14.00;99.90
30534;DHT22;17318;52.390;9.754;2022-11-04T01:37:18;13.90;99.90
30534;DHT22;17318;52.390;9.754;2022-11-04T01:39:44;14.00;99.90
30534;DHT22;17318;52.390;9.754;2022-11-04T01:42:12;14.00;99.90
30534;DHT22;17318;52.390;9.754;2022-11-04T01:47:36;13.90;99.90
30534;DHT22;17318;52.390;9.754;2022-11-04T01:50:18;13.90;99.90
30534;DHT22;17318;52.390;9.754;2022-11-04T01:52:59;13.90;99.90
30534;DHT22;17318;52.390;9.754;2022-11-04T01:55:30;13.90;99.90
30534;DHT22;17318;52.390;9.754;2022-11-04T01:58:04;13.90;99.90
30534;DHT22;17318;52.390;9.754;2022-11-04T02:00:31;13.80;99.90
30534;DHT22;17318;52.390;9.754;2022-11-04T02:05:22;13.90;99.90
30534;DHT22;17318;52.390;9.754;2022-11-04T02:07:50;13.90;99.90
30534;DHT22;17318;52.390;9.754;2022-11-04T02:10:19;13.80;99.90
30534;DHT22;17318;52.390;9.754;2022-11-04T02:12:45;13.80;99.90
30534;DHT22;17318;52.390;9.754;2022-11-04T02:20:37;13.80;99.90
30534;DHT22;17318;52.390;9.754;2022-11-04T02:26:07;13.80;99.90
30534;DHT22;17318;52.390;9.754;2022-11-04T02:31:58;13.80;99.90
30534;DHT22;17318;52.390;9.754;2022-11-04T02:35:00;13.80;99.90
30534;DHT22;17318;52.390;9.754;2022-11-04T02:46:11;13.80;99.90
30534;DHT22;17318;52.390;9.754;2022-11-04T02:48:46;13.80;99.90
30534;DHT22;17318;52.390;9.754;2022-11-04T02:51:27;13.80;99.90
30534;DHT22;17318;52.390;9.754;2022-11-04T02:54:04;13.80;99.90
30534;DHT22;17318;52.390;9.754;2022-11-04T02:56:35;13.80;99.90
30534;DHT22;17318;52.390;9.754;2022-11-04T02:59:06;13.90;99.90
30534;DHT22;17318;52.390;9.754;2022-11-04T03:01:38;13.90;99.90
30534;DHT22;17318;52.390;9.754;2022-11-04T03:04:16;13.90;99.90
30534;DHT22;17318;52.390;9.754;2022-11-04T03:06:46;13.90;99.90
30534;DHT22;17318;52.390;9.754;2022-11-04T03:09:14;13.90;99.90
30534;DHT22;17318;52.390;9.754;2022-11-04T03:11:43;13.90;99.90
30534;DHT22;17318;52.390;9.754;2022-11-04T03:14:16;13.90;99.90
30534;DHT22;17318;52.390;9.754;2022-11-04T03:16:50;13.90;99.90
30534;DHT22;17318;52.390;9.754;2022-11-04T03:22:18;13.80;99.90
30534;DHT22;17318;52.390;9.754;2022-11-04T03:24:46;13.80;99.90
30534;DHT22;17318;52.390;9.754;2022-11-04T03:30:20;13.70;99.90
30534;DHT22;17318;52.390;9.754;2022-11-04T03:35:18;13.60;99.90
30534;DHT22;17318;52.390;9.754;2022-11-04T03:37:46;13.60;99.90
30534;DHT22;17318;52.390;9.754;2022-11-04T03:40:14;13.60;99.90
30534;DHT22;17318;52.390;9.754;2022-11-04T03:42:47;13.50;99.90
30534;DHT22;17318;52.390;9.754;2022-11-04T03:45:14;13.50;99.90
30534;DHT22;17318;52.390;9.754;2022-11-04T03:47:43;13.50;99.90
30534;DHT22;17318;52.390;9.754;2022-11-04T03:52:48;13.60;99.90
30534;DHT22;17318;52.390;9.754;2022-11-04T03:55:14;13.60;99.90
30534;DHT22;17318;52.390;9.754;2022-11-04T03:57:59;13.50;99.90
30534;DHT22;17318;52.390;9.754;2022-11-04T04:00:34;13.40;99.90
30534;DHT22;17318;52.390;9.754;2022-11-04T04:03:27;13.40;99.90
30534;DHT22;17318;52.390;9.754;2022-11-04T04:06:08;13.30;99.90
30534;DHT22;17318;52.390;9.754;2022-11-04T04:14:08;13.40;99.90
30534;DHT22;17318;52.390;9.754;2022-11-04T04:16:39;13.30;99.80
30534;DHT22;17318;52.390;9.754;2022-11-04T04:19:13;13.40;99.90
30534;DHT22;17318;52.390;9.754;2022-11-04T04:24:13;13.20;99.90
30534;DHT22;17318;52.390;9.754;2022-11-04T04:26:59;13.20;99.90
30534;DHT22;17318;52.390;9.754;2022-11-04T04:29:45;13.30;99.90
30534;DHT22;17318;52.390;9.754;2022-11-04T04:32:13;13.10;99.90
30534;DHT22;17318;52.390;9.754;2022-11-04T04:34:39;13.10;99.90
30534;DHT22;17318;52.390;9.754;2022-11-04T04:37:22;13.10;99.90
30534;DHT22;17318;52.390;9.754;2022-11-04T04:39:55;13.20;99.70
30534;DHT22;17318;52.390;9.754;2022-11-04T04:42:41;13.10;99.80
30534;DHT22;17318;52.390;9.754;2022-11-04T04:45:35;13.20;99.90
30534;DHT22;17318;52.390;9.754;2022-11-04T04:48:02;13.00;99.80
30534;DHT22;17318;52.390;9.754;2022-11-04T04:50:33;13.00;99.90
30534;DHT22;17318;52.390;9.754;2022-11-04T04:53:00;13.10;99.90
30534;DHT22;17318;52.390;9.754;2022-11-04T04:55:29;13.20;99.90
30534;DHT22;17318;52.390;9.754;2022-11-04T04:57:58;13.10;99.90
30534;DHT22;17318;52.390;9.754;2022-11-04T05:00:25;13.20;99.90
30534;DHT22;17318;52.390;9.754;2022-11-04T05:02:50;13.20;99.90
30534;DHT22;17318;52.390;9.754;2022-11-04T05:05:17;13.10;99.90
30534;DHT22;17318;52.390;9.754;2022-11-04T05:07:43;13.20;99.80
30534;DHT22;17318;52.390;9.754;2022-11-04T05:10:11;13.10;99.60
30534;DHT22;17318;52.390;9.754;2022-11-04T05:12:38;13.20;99.60
30534;DHT22;17318;52.390;9.754;2022-11-04T05:15:23;13.10;99.50
30534;DHT22;17318;52.390;9.754;2022-11-04T05:17:59;13.10;99.40
30534;DHT22;17318;52.390;9.754;2022-11-04T05:20:25;13.10;99.50
30534;DHT22;17318;52.390;9.754;2022-11-04T05:22:53;13.00;99.50
30534;DHT22;17318;52.390;9.754;2022-11-04T05:25:19;12.90;99.60
30534;DHT22;17318;52.390;9.754;2022-11-04T05:27:45;12.90;99.60
30534;DHT22;17318;52.390;9.754;2022-11-04T05:30:10;12.90;99.60
30534;DHT22;17318;52.390;9.754;2022-11-04T05:32:36;13.00;99.50
30534;DHT22;17318;52.390;9.754;2022-11-04T05:35:02;12.90;99.60
30534;DHT22;17318;52.390;9.754;2022-11-04T05:37:28;12.90;99.40
30534;DHT22;17318;52.390;9.754;2022-11-04T05:39:53;12.90;99.30
30534;DHT22;17318;52.390;9.754;2022-11-04T05:42:19;12.70;99.20
30534;DHT22;17318;52.390;9.754;2022-11-04T05:44:45;12.80;99.50
30534;DHT22;17318;52.390;9.754;2022-11-04T05:47:11;12.80;99.30
30534;DHT22;17318;52.390;9.754;2022-11-04T05:49:36;12.80;99.30
30534;DHT22;17318;52.390;9.754;2022-11-04T05:52:02;12.80;99.20
30534;DHT22;17318;52.390;9.754;2022-11-04T05:54:28;12.80;99.10
30534;DHT22;17318;52.390;9.754;2022-11-04T05:56:53;12.80;98.90
30534;DHT22;17318;52.390;9.754;2022-11-04T05:59:19;12.80;99.00
30534;DHT22;17318;52.390;9.754;2022-11-04T06:01:45;12.60;99.00
30534;DHT22;17318;52.390;9.754;2022-11-04T06:04:15;12.70;98.90
30534;DHT22;17318;52.390;9.754;2022-11-04T06:06:41;12.80;99.00
30534;DHT22;17318;52.390;9.754;2022-11-04T06:09:07;12.80;99.10
30534;DHT22;17318;52.390;9.754;2022-11-04T06:11:35;12.70;99.10
30534;DHT22;17318;52.390;9.754;2022-11-04T06:14:02;12.70;99.10
30534;DHT22;17318;52.390;9.754;2022-11-04T06:16:27;12.80;99.10
30534;DHT22;17318;52.390;9.754;2022-11-04T06:18:53;12.60;99.00
30534;DHT22;17318;52.390;9.754;2022-11-04T06:21:29;12.80;99.00
30534;DHT22;17318;52.390;9.754;2022-11-04T06:23:56;12.80;99.00
30534;DHT22;17318;52.390;9.754;2022-11-04T06:26:23;12.80;98.90
30534;DHT22;17318;52.390;9.754;2022-11-04T06:28:49;12.80;98.90
30534;DHT22;17318;52.390;9.754;2022-11-04T06:31:16;12.80;99.00
30534;DHT22;17318;52.390;9.754;2022-11-04T06:33:42;12.80;99.00
30534;DHT22;17318;52.390;9.754;2022-11-04T06:36:13;12.80;99.00
30534;DHT22;17318;52.390;9.754;2022-11-04T06:38:39;12.80;99.00
30534;DHT22;17318;52.390;9.754;2022-11-04T06:41:08;12.90;99.10
30534;DHT22;17318;52.390;9.754;2022-11-04T06:43:34;12.90;99.00
30534;DHT22;17318;52.390;9.754;2022-11-04T06:46:01;13.00;99.00
30534;DHT22;17318;52.390;9.754;2022-11-04T06:48:28;13.00;99.00
30534;DHT22;17318;52.390;9.754;2022-11-04T06:50:57;13.00;98.90
30534;DHT22;17318;52.390;9.754;2022-11-04T06:53:24;13.00;98.90
30534;DHT22;17318;52.390;9.754;2022-11-04T06:55:51;13.00;99.00
30534;DHT22;17318;52.390;9.754;2022-11-04T06:58:17;13.00;99.00
30534;DHT22;17318;52.390;9.754;2022-11-04T07:00:43;13.00;99.00
30534;DHT22;17318;52.390;9.754;2022-11-04T07:03:09;13.10;98.90
30534;DHT22;17318;52.390;9.754;2022-11-04T07:05:35;13.10;98.80
30534;DHT22;17318;52.390;9.754;2022-11-04T07:08:01;13.00;98.80
30534;DHT22;17318;52.390;9.754;2022-11-04T07:10:26;13.00;98.80
30534;DHT22;17318;52.390;9.754;2022-11-04T07:12:52;13.00;98.70
30534;DHT22;17318;52.390;9.754;2022-11-04T07:15:19;13.10;98.70
30534;DHT22;17318;52.390;9.754;2022-11-04T07:17:45;13.20;98.60
30534;DHT22;17318;52.390;9.754;2022-11-04T07:20:11;13.10;98.60
30534;DHT22;17318;52.390;9.754;2022-11-04T07:22:38;13.20;98.50
30534;DHT22;17318;52.390;9.754;2022-11-04T07:25:05;13.10;98.30
30534;DHT22;17318;52.390;9.754;2022-11-04T07:27:30;13.10;98.40
30534;DHT22;17318;52.390;9.754;2022-11-04T07:29:56;13.10;98.30
30534;DHT22;17318;52.390;9.754;2022-11-04T07:32:22;13.10;98.40
30534;DHT22;17318;52.390;9.754;2022-11-04T07:34:47;13.10;98.20
30534;DHT22;17318;52.390;9.754;2022-11-04T07:37:13;13.10;98.20
30534;DHT22;17318;52.390;9.754;2022-11-04T07:39:39;13.10;97.80
30534;DHT22;17318;52.390;9.754;2022-11-04T07:42:07;13.10;97.80
30534;DHT22;17318;52.390;9.754;2022-11-04T07:44:33;13.00;97.90
30534;DHT22;17318;52.390;9.754;2022-11-04T07:46:58;13.10;97.90
30534;DHT22;17318;52.390;9.754;2022-11-04T07:49:24;13.10;97.90
30534;DHT22;17318;52.390;9.754;2022-11-04T07:51:50;13.10;98.10
30534;DHT22;17318;52.390;9.754;2022-11-04T07:54:16;13.20;97.80
30534;DHT22;17318;52.390;9.754;2022-11-04T07:56:42;13.20;97.80
30534;DHT22;17318;52.390;9.754;2022-11-04T07:59:07;13.20;97.70
30534;DHT22;17318;52.390;9.754;2022-11-04T08:01:33;13.20;98.00
30534;DHT22;17318;52.390;9.754;2022-11-04T08:03:59;13.30;97.70
30534;DHT22;17318;52.390;9.754;2022-11-04T08:06:25;13.20;97.60
30534;DHT22;17318;52.390;9.754;2022-11-04T08:08:50;13.20;97.40
30534;DHT22;17318;52.390;9.754;2022-11-04T08:11:21;13.20;97.40
30534;DHT22;17318;52.390;9.754;2022-11-04T08:13:49;13.30;97.50
30534;DHT22;17318;52.390;9.754;2022-11-04T08:16:20;13.30;97.20
30534;DHT22;17318;52.390;9.754;2022-11-04T08:18:47;13.20;97.30
30534;DHT22;17318;52.390;9.754;2022-11-04T08:21:14;13.10;97.30
30534;DHT22;17318;52.390;9.754;2022-11-04T08:23:40;13.20;97.40
30534;DHT22;17318;52.390;9.754;2022-11-04T08:26:08;13.10;97.50
30534;DHT22;17318;52.390;9.754;2022-11-04T08:28:36;13.20;97.50
30534;DHT22;17318;52.390;9.754;2022-11-04T08:31:05;13.20;97.40
30534;DHT22;17318;52.390;9.754;2022-11-04T08:33:32;13.10;97.60
30534;DHT22;17318;52.390;9.754;2022-11-04T08:36:16;13.20;97.40
30534;DHT22;17318;52.390;9.754;2022-11-04T08:38:43;13.20;97.40
30534;DHT22;17318;52.390;9.754;2022-11-04T08:41:10;13.20;97.30
30534;DHT22;17318;52.390;9.754;2022-11-04T08:43:36;13.30;97.40
30534;DHT22;17318;52.390;9.754;2022-11-04T08:46:05;13.30;97.30
30534;DHT22;17318;52.390;9.754;2022-11-04T08:48:33;13.30;97.30
30534;DHT22;17318;52.390;9.754;2022-11-04T08:50:58;13.30;97.50
30534;DHT22;17318;52.390;9.754;2022-11-04T08:53:25;13.20;97.40
30534;DHT22;17318;52.390;9.754;2022-11-04T08:55:50;13.30;97.40
30534;DHT22;17318;52.390;9.754;2022-11-04T08:58:17;13.20;97.40
30534;DHT22;17318;52.390;9.754;2022-11-04T09:00:42;13.30;97.50
30534;DHT22;17318;52.390;9.754;2022-11-04T09:03:08;13.40;97.40
30534;DHT22;17318;52.390;9.754;2022-11-04T09:05:38;13.50;97.30
30534;DHT22;17318;52.390;9.754;2022-11-04T09:08:16;13.60;97.40
30534;DHT22;17318;52.390;9.754;2022-11-04T09:10:46;13.60;97.30
30534;DHT22;17318;52.390;9.754;2022-11-04T09:13:13;13.70;97.20
30534;DHT22;17318;52.390;9.754;2022-11-04T09:15:40;13.70;96.90
30534;DHT22;17318;52.390;9.754;2022-11-04T09:18:06;13.80;97.10
30534;DHT22;17318;52.390;9.754;2022-11-04T09:20:33;13.80;96.60
30534;DHT22;17318;52.390;9.754;2022-11-04T09:22:59;13.50;96.80
30534;DHT22;17318;52.390;9.754;2022-11-04T09:25:25;13.70;97.30
30534;DHT22;17318;52.390;9.754;2022-11-04T09:27:51;13.90;97.20
30534;DHT22;17318;52.390;9.754;2022-11-04T09:30:17;13.90;97.00
30534;DHT22;17318;52.390;9.754;2022-11-04T09:32:42;14.00;96.80
30534;DHT22;17318;52.390;9.754;2022-11-04T09:35:08;13.90;96.80
30534;DHT22;17318;52.390;9.754;2022-11-04T09:37:34;14.00;96.80
30534;DHT22;17318;52.390;9.754;2022-11-04T09:40:00;13.80;96.30
30534;DHT22;17318;52.390;9.754;2022-11-04T09:42:35;13.90;96.80
30534;DHT22;17318;52.390;9.754;2022-11-04T09:45:14;13.80;96.60
30534;DHT22;17318;52.390;9.754;2022-11-04T09:47:45;13.90;96.70
30534;DHT22;17318;52.390;9.754;2022-11-04T09:50:23;13.80;96.50
30534;DHT22;17318;52.390;9.754;2022-11-04T09:52:54;13.70;96.20
30534;DHT22;17318;52.390;9.754;2022-11-04T09:55:57;13.80;96.70
30534;DHT22;17318;52.390;9.754;2022-11-04T09:58:24;13.80;96.70
30534;DHT22;17318;52.390;9.754;2022-11-04T10:01:03;13.90;96.80
30534;DHT22;17318;52.390;9.754;2022-11-04T10:04:03;13.80;96.50
30534;DHT22;17318;52.390;9.754;2022-11-04T10:06:55;13.90;96.60
30534;DHT22;17318;52.390;9.754;2022-11-04T10:15:38;13.50;96.80
30534;DHT22;17318;52.390;9.754;2022-11-04T10:21:07;13.80;96.70
30534;DHT22;17318;52.390;9.754;2022-11-04T10:23:51;13.80;96.50
30534;DHT22;17318;52.390;9.754;2022-11-04T10:26:33;13.80;96.50
30534;DHT22;17318;52.390;9.754;2022-11-04T10:29:04;13.80;96.50
30534;DHT22;17318;52.390;9.754;2022-11-04T10:31:30;13.80;96.50
30534;DHT22;17318;52.390;9.754;2022-11-04T10:34:03;13.50;96.60
30534;DHT22;17318;52.390;9.754;2022-11-04T10:36:30;13.80;96.70
30534;DHT22;17318;52.390;9.754;2022-11-04T10:38:57;14.20;96.40
30534;DHT22;17318;52.390;9.754;2022-11-04T10:41:34;14.70;96.40
30534;DHT22;17318;52.390;9.754;2022-11-04T10:44:05;14.90;95.30
30534;DHT22;17318;52.390;9.754;2022-11-04T10:51:49;14.90;95.10
30534;DHT22;17318;52.390;9.754;2022-11-04T10:54:15;15.00;94.90
30534;DHT22;17318;52.390;9.754;2022-11-04T10:56:49;15.00;94.90
30534;DHT22;17318;52.390;9.754;2022-11-04T10:59:23;15.00;95.10
30534;DHT22;17318;52.390;9.754;2022-11-04T11:01:52;15.20;95.00
30534;DHT22;17318;52.390;9.754;2022-11-04T11:04:28;15.00;94.40
30534;DHT22;17318;52.390;9.754;2022-11-04T11:06:56;15.00;94.10
30534;DHT22;17318;52.390;9.754;2022-11-04T11:09:27;14.70;94.10
30534;DHT22;17318;52.390;9.754;2022-11-04T11:12:05;14.50;94.10
30534;DHT22;17318;52.390;9.754;2022-11-04T11:14:42;14.50;94.50
30534;DHT22;17318;52.390;9.754;2022-11-04T11:22:28;14.50;95.00
30534;DHT22;17318;52.390;9.754;2022-11-04T11:27:59;14.40;94.90
30534;DHT22;17318;52.390;9.754;2022-11-04T11:35:49;14.00;94.70
30534;DHT22;17318;52.390;9.754;2022-11-04T11:38:20;14.30;95.10
30534;DHT22;17318;52.390;9.754;2022-11-04T11:40:47;14.10;95.10
30534;DHT22;17318;52.390;9.754;2022-11-04T11:43:26;14.30;95.10
30534;DHT22;17318;52.390;9.754;2022-11-04T11:45:53;14.40;94.90
30534;DHT22;17318;52.390;9.754;2022-11-04T11:48:43;14.40;94.90
30534;DHT22;17318;52.390;9.754;2022-11-04T11:51:16;14.40;95.10
30534;DHT22;17318;52.390;9.754;2022-11-04T11:54:27;14.50;94.80
30534;DHT22;17318;52.390;9.754;2022-11-04T11:56:56;14.60;94.80
30534;DHT22;17318;52.390;9.754;2022-11-04T12:04:42;14.40;94.60
30534;DHT22;17318;52.390;9.754;2022-11-04T12:13:10;14.50;94.50
30534;DHT22;17318;52.390;9.754;2022-11-04T12:21:34;14.60;94.80
30534;DHT22;17318;52.390;9.754;2022-11-04T12:24:19;14.70;94.60
30534;DHT22;17318;52.390;9.754;2022-11-04T12:32:43;14.70;94.80
30534;DHT22;17318;52.390;9.754;2022-11-04T12:40:32;14.50;94.10
30534;DHT22;17318;52.390;9.754;2022-11-04T12:45:36;14.50;94.40
30534;DHT22;17318;52.390;9.754;2022-11-04T12:48:08;14.50;94.60
30534;DHT22;17318;52.390;9.754;2022-11-04T12:56:35;14.80;94.30
30534;DHT22;17318;52.390;9.754;2022-11-04T13:05:14;14.90;94.00
30534;DHT22;17318;52.390;9.754;2022-11-04T13:07:55;14.90;93.80
30534;DHT22;17318;52.390;9.754;2022-11-04T13:10:39;15.00;93.60
30534;DHT22;17318;52.390;9.754;2022-11-04T13:13:07;15.10;94.00
30534;DHT22;17318;52.390;9.754;2022-11-04T13:15:56;15.10;93.80
30534;DHT22;17318;52.390;9.754;2022-11-04T13:18:25;15.20;93.80
30534;DHT22;17318;52.390;9.754;2022-11-04T13:26:19;14.80;93.60
30534;DHT22;17318;52.390;9.754;2022-11-04T13:28:53;14.80;93.90
30534;DHT22;17318;52.390;9.754;2022-11-04T13:37:15;14.80;94.30
30534;DHT22;17318;52.390;9.754;2022-11-04T13:39:53;14.90;94.10
30534;DHT22;17318;52.390;9.754;2022-11-04T13:45:13;14.80;93.90
30534;DHT22;17318;52.390;9.754;2022-11-04T13:47:44;14.90;94.00
30534;DHT22;17318;52.390;9.754;2022-11-04T13:50:40;14.80;93.90
30534;DHT22;17318;52.390;9.754;2022-11-04T13:53:08;14.90;94.10
30534;DHT22;17318;52.390;9.754;2022-11-04T13:55:35;15.00;94.10
30534;DHT22;17318;52.390;9.754;2022-11-04T13:58:22;15.00;94.20
30534;DHT22;17318;52.390;9.754;2022-11-04T14:01:24;15.00;94.10
30534;DHT22;17318;52.390;9.754;2022-11-04T14:04:38;14.80;94.00
30534;DHT22;17318;52.390;9.754;2022-11-04T14:14:46;14.70;94.10
30534;DHT22;17318;52.390;9.754;2022-11-04T14:27:45;14.80;94.70
30534;DHT22;17318;52.390;9.754;2022-11-04T14:30:44;14.80;94.40
30534;DHT22;17318;52.390;9.754;2022-11-04T14:35:55;14.60;94.70
30534;DHT22;17318;52.390;9.754;2022-11-04T14:38:31;14.60;94.80
30534;DHT22;17318;52.390;9.754;2022-11-04T14:41:14;14.70;94.90
30534;DHT22;17318;52.390;9.754;2022-11-04T14:43:44;14.70;94.90
30534;DHT22;17318;52.390;9.754;2022-11-04T14:46:21;14.70;94.80
30534;DHT22;17318;52.390;9.754;2022-11-04T14:48:50;14.80;94.80
30534;DHT22;17318;52.390;9.754;2022-11-04T14:51:25;14.60;94.80
30534;DHT22;17318;52.390;9.754;2022-11-04T14:54:41;14.60;94.90
30534;DHT22;17318;52.390;9.754;2022-11-04T14:56:50;14.70;94.90
30534;DHT22;17318;52.390;9.754;2022-11-04T14:59:26;14.70;94.90
30534;DHT22;17318;52.390;9.754;2022-11-04T15:01:53;14.70;94.90
30534;DHT22;17318;52.390;9.754;2022-11-04T15:04:29;14.60;94.90
30534;DHT22;17318;52.390;9.754;2022-11-04T15:07:03;14.60;95.00
30534;DHT22;17318;52.390;9.754;2022-11-04T15:09:31;14.60;95.00
30534;DHT22;17318;52.390;9.754;2022-11-04T15:12:12;14.60;94.90
30534;DHT22;17318;52.390;9.754;2022-11-04T15:14:57;14.70;95.00
30534;DHT22;17318;52.390;9.754;2022-11-04T15:17:27;14.70;95.00
30534;DHT22;17318;52.390;9.754;2022-11-04T15:19:56;14.60;94.90
30534;DHT22;17318;52.390;9.754;2022-11-04T15:22:24;14.60;95.00
30534;DHT22;17318;52.390;9.754;2022-11-04T15:24:51;14.50;95.10
30534;DHT22;17318;52.390;9.754;2022-11-04T15:27:27;14.50;95.10
30534;DHT22;17318;52.390;9.754;2022-11-04T15:29:55;14.60;95.10
30534;DHT22;17318;52.390;9.754;2022-11-04T15:32:22;14.60;95.00
30534;DHT22;17318;52.390;9.754;2022-11-04T15:34:49;14.60;95.10
30534;DHT22;17318;52.390;9.754;2022-11-04T15:37:15;14.60;95.10
30534;DHT22;17318;52.390;9.754;2022-11-04T15:39:45;14.50;95.50
30534;DHT22;17318;52.390;9.754;2022-11-04T15:42:20;14.50;95.40
30534;DHT22;17318;52.390;9.754;2022-11-04T15:48:32;14.50;95.50
30534;DHT22;17318;52.390;9.754;2022-11-04T15:51:18;14.40;95.50
30534;DHT22;17318;52.390;9.754;2022-11-04T15:54:17;14.40;95.50
30534;DHT22;17318;52.390;9.754;2022-11-04T15:56:55;14.40;95.50
30534;DHT22;17318;52.390;9.754;2022-11-04T15:59:25;14.40;95.60
30534;DHT22;17318;52.390;9.754;2022-11-04T16:01:53;14.40;95.50
30534;DHT22;17318;52.390;9.754;2022-11-04T16:04:23;14.40;95.60
30534;DHT22;17318;52.390;9.754;2022-11-04T16:07:21;14.40;95.70
30534;DHT22;17318;52.390;9.754;2022-11-04T16:09:51;14.30;95.70
30534;DHT22;17318;52.390;9.754;2022-11-04T16:12:26;14.30;95.90
30534;DHT22;17318;52.390;9.754;2022-11-04T16:14:54;14.30;95.90
30534;DHT22;17318;52.390;9.754;2022-11-04T16:17:21;14.20;95.90
30534;DHT22;17318;52.390;9.754;2022-11-04T16:19:51;14.20;95.90
30534;DHT22;17318;52.390;9.754;2022-11-04T16:22:23;14.20;95.90
30534;DHT22;17318;52.390;9.754;2022-11-04T16:24:51;14.20;96.20
30534;DHT22;17318;52.390;9.754;2022-11-04T16:27:20;14.10;96.50
30534;DHT22;17318;52.390;9.754;2022-11-04T16:30:16;14.00;96.40
30534;DHT22;17318;52.390;9.754;2022-11-04T16:32:42;14.00;96.50
30534;DHT22;17318;52.390;9.754;2022-11-04T16:35:17;14.00;96.50
30534;DHT22;17318;52.390;9.754;2022-11-04T16:37:44;13.90;96.60
30534;DHT22;17318;52.390;9.754;2022-11-04T16:40:11;13.90;96.50
30534;DHT22;17318;52.390;9.754;2022-11-04T16:42:37;13.90;96.70
30534;DHT22;17318;52.390;9.754;2022-11-04T16:45:03;13.90;96.70
30534;DHT22;17318;52.390;9.754;2022-11-04T16:47:32;13.90;96.70
30534;DHT22;17318;52.390;9.754;2022-11-04T16:50:00;13.90;96.80
30534;DHT22;17318;52.390;9.754;2022-11-04T16:52:27;13.80;96.80
30534;DHT22;17318;52.390;9.754;2022-11-04T16:54:53;13.80;96.70
30534;DHT22;17318;52.390;9.754;2022-11-04T16:57:21;13.80;96.90
30534;DHT22;17318;52.390;9.754;2022-11-04T16:59:48;13.80;96.80
30534;DHT22;17318;52.390;9.754;2022-11-04T17:02:36;13.80;96.90
30534;DHT22;17318;52.390;9.754;2022-11-04T17:05:06;13.70;96.80
30534;DHT22;17318;52.390;9.754;2022-11-04T17:07:36;13.70;96.80
30534;DHT22;17318;52.390;9.754;2022-11-04T17:10:04;13.70;96.70
30534;DHT22;17318;52.390;9.754;2022-11-04T17:12:36;13.70;96.80
30534;DHT22;17318;52.390;9.754;2022-11-04T17:15:02;13.70;96.70
30534;DHT22;17318;52.390;9.754;2022-11-04T17:17:28;13.70;96.70
30534;DHT22;17318;52.390;9.754;2022-11-04T17:19:53;13.70;96.70
30534;DHT22;17318;52.390;9.754;2022-11-04T17:22:19;13.70;96.90
30534;DHT22;17318;52.390;9.754;2022-11-04T17:24:45;13.70;96.80
30534;DHT22;17318;52.390;9.754;2022-11-04T17:27:10;13.60;96.90
30534;DHT22;17318;52.390;9.754;2022-11-04T17:29:36;13.50;97.00
30534;DHT22;17318;52.390;9.754;2022-11-04T17:32:03;13.60;97.00
30534;DHT22;17318;52.390;9.754;2022-11-04T17:34:28;13.50;97.10
30534;DHT22;17318;52.390;9.754;2022-11-04T17:36:54;13.50;97.00
30534;DHT22;17318;52.390;9.754;2022-11-04T17:39:20;13.50;97.00
30534;DHT22;17318;52.390;9.754;2022-11-04T17:41:46;13.50;97.00
30534;DHT22;17318;52.390;9.754;2022-11-04T17:44:30;13.50;97.10
30534;DHT22;17318;52.390;9.754;2022-11-04T17:46:56;13.50;97.10
30534;DHT22;17318;52.390;9.754;2022-11-04T17:49:25;13.50;97.00
30534;DHT22;17318;52.390;9.754;2022-11-04T17:51:54;13.50;97.10
30534;DHT22;17318;52.390;9.754;2022-11-04T17:54:22;13.50;97.10
30534;DHT22;17318;52.390;9.754;2022-11-04T17:56:48;13.40;97.10
30534;DHT22;17318;52.390;9.754;2022-11-04T17:59:14;13.40;97.20
30534;DHT22;17318;52.390;9.754;2022-11-04T18:01:41;13.40;97.20
30534;DHT22;17318;52.390;9.754;2022-11-04T18:04:18;13.40;97.10
30534;DHT22;17318;52.390;9.754;2022-11-04T18:06:44;13.40;97.30
30534;DHT22;17318;52.390;9.754;2022-11-04T18:09:11;13.40;97.20
30534;DHT22;17318;52.390;9.754;2022-11-04T18:11:37;13.40;97.30
30534;DHT22;17318;52.390;9.754;2022-11-04T18:14:22;13.40;97.20
30534;DHT22;17318;52.390;9.754;2022-11-04T18:16:48;13.30;97.20
30534;DHT22;17318;52.390;9.754;2022-11-04T18:19:19;13.30;97.30
30534;DHT22;17318;52.390;9.754;2022-11-04T18:21:46;13.20;97.20
30534;DHT22;17318;52.390;9.754;2022-11-04T18:24:12;13.30;97.20
30534;DHT22;17318;52.390;9.754;2022-11-04T18:26:38;13.20;97.20
30534;DHT22;17318;52.390;9.754;2022-11-04T18:29:05;13.10;97.40